sensor_id;sensor_type;location;lat;lon;timestamp;pressure;altitude;pressure_sealevel;temperature;humidity
78800;BME280;68148;55.328;86.106;2024-02-16T00:02:23;99921.22;;;-28.52;75.46
78800;BME280;68148;55.328;86.106;2024-02-16T00:04:49;99923.19;;;-28.66;75.26
78800;BME280;68148;55.328;86.106;2024-02-16T00:07:17;99934.22;;;-28.80;74.80
78800;BME280;68148;55.328;86.106;2024-02-16T00:09:42;99938.09;;;-29.07;74.58
78800;BME280;68148;55.328;86.106;2024-02-16T00:12:08;99937.53;;;-29.02;75.26
78800;BME280;68148;55.328;86.106;2024-02-16T00:14:34;99945.00;;;-29.00;75.58
78800;BME280;68148;55.328;86.106;2024-02-16T00:16:59;99949.72;;;-29.06;75.78
78800;BME280;68148;55.328;86.106;2024-02-16T00:19:25;99956.31;;;-29.26;76.13
78800;BME280;68148;55.328;86.106;2024-02-16T00:21:51;99950.28;;;-29.33;77.10
78800;BME280;68148;55.328;86.106;2024-02-16T00:24:17;99960.47;;;-29.25;77.58
78800;BME280;68148;55.328;86.106;2024-02-16T00:26:43;99945.28;;;-29.13;77.90
78800;BME280;68148;55.328;86.106;2024-02-16T00:29:09;99947.66;;;-28.94;78.33
78800;BME280;68148;55.328;86.106;2024-02-16T00:31:35;99952.69;;;-28.93;76.81
78800;BME280;68148;55.328;86.106;2024-02-16T00:34:01;99949.28;;;-28.95;76.99
78800;BME280;68148;55.328;86.106;2024-02-16T00:36:37;99952.88;;;-28.88;77.46
78800;BME280;68148;55.328;86.106;2024-02-16T00:39:04;99950.56;;;-28.83;77.12
78800;BME280;68148;55.328;86.106;2024-02-16T00:41:29;99955.81;;;-28.76;77.54
78800;BME280;68148;55.328;86.106;2024-02-16T00:43:55;99954.47;;;-28.68;78.27
78800;BME280;68148;55.328;86.106;2024-02-16T00:46:21;99956.56;;;-28.56;77.14
78800;BME280;68148;55.328;86.106;2024-02-16T00:48:47;99960.28;;;-28.45;77.71
78800;BME280;68148;55.328;86.106;2024-02-16T00:51:13;99956.34;;;-28.40;77.47
78800;BME280;68148;55.328;86.106;2024-02-16T00:53:39;99960.28;;;-28.45;77.06
78800;BME280;68148;55.328;86.106;2024-02-16T00:56:05;99974.31;;;-28.45;76.44
78800;BME280;68148;55.328;86.106;2024-02-16T01:01:59;99982.09;;;-28.57;76.24
78800;BME280;68148;55.328;86.106;2024-02-16T01:04:25;99989.34;;;-28.61;76.10
78800;BME280;68148;55.328;86.106;2024-02-16T01:06:51;99992.28;;;-28.72;75.49
78800;BME280;68148;55.328;86.106;2024-02-16T01:09:18;100001.56;;;-28.87;74.93
78800;BME280;68148;55.328;86.106;2024-02-16T01:11:45;100001.19;;;-28.98;74.79
78800;BME280;68148;55.328;86.106;2024-02-16T01:14:11;100013.75;;;-29.12;74.37
78800;BME280;68148;55.328;86.106;2024-02-16T01:16:37;100012.03;;;-29.34;74.70
78800;BME280;68148;55.328;86.106;2024-02-16T01:19:03;100002.97;;;-29.55;74.12
78800;BME280;68148;55.328;86.106;2024-02-16T01:21:29;100014.88;;;-29.65;75.35
78800;BME280;68148;55.328;86.106;2024-02-16T01:23:55;100017.53;;;-29.61;74.92
78800;BME280;68148;55.328;86.106;2024-02-16T01:26:21;100020.16;;;-29.58;75.51
78800;BME280;68148;55.328;86.106;2024-02-16T01:28:47;100022.78;;;-29.53;75.46
78800;BME280;68148;55.328;86.106;2024-02-16T01:31:13;100019.47;;;-29.54;75.05
78800;BME280;68148;55.328;86.106;2024-02-16T01:33:39;100029.34;;;-29.54;75.13
78800;BME280;68148;55.328;86.106;2024-02-16T01:36:05;100033.72;;;-29.48;75.17
78800;BME280;68148;55.328;86.106;2024-02-16T01:38:31;100028.41;;;-29.57;74.11
78800;BME280;68148;55.328;86.106;2024-02-16T01:40:57;100036.72;;;-29.55;73.99
78800;BME280;68148;55.328;86.106;2024-02-16T01:43:23;100035.47;;;-29.65;73.67
78800;BME280;68148;55.328;86.106;2024-02-16T01:45:49;100037.38;;;-29.79;73.96
78800;BME280;68148;55.328;86.106;2024-02-16T01:48:16;100036.28;;;-30.03;74.31
78800;BME280;68148;55.328;86.106;2024-02-16T01:50:43;100043.22;;;-30.14;74.63
78800;BME280;68148;55.328;86.106;2024-02-16T01:53:11;100040.53;;;-30.01;76.04
78800;BME280;68148;55.328;86.106;2024-02-16T01:55:37;100039.56;;;-29.85;76.02
78800;BME280;68148;55.328;86.106;2024-02-16T01:58:05;100042.25;;;-29.61;76.50
78800;BME280;68148;55.328;86.106;2024-02-16T02:00:30;100052.63;;;-29.49;76.64
78800;BME280;68148;55.328;86.106;2024-02-16T02:02:56;100052.50;;;-29.32;76.55
78800;BME280;68148;55.328;86.106;2024-02-16T02:05:22;100059.00;;;-29.15;76.35
78800;BME280;68148;55.328;86.106;2024-02-16T02:07:50;100055.47;;;-29.01;76.33
78800;BME280;68148;55.328;86.106;2024-02-16T02:10:15;100064.34;;;-28.85;75.93
78800;BME280;68148;55.328;86.106;2024-02-16T02:12:42;100062.09;;;-28.79;75.21
78800;BME280;68148;55.328;86.106;2024-02-16T02:15:08;100070.38;;;-28.78;75.10
78800;BME280;68148;55.328;86.106;2024-02-16T02:17:36;100078.91;;;-28.72;74.58
78800;BME280;68148;55.328;86.106;2024-02-16T02:20:02;100069.09;;;-28.69;74.11
78800;BME280;68148;55.328;86.106;2024-02-16T02:22:28;100077.56;;;-28.63;74.99
78800;BME280;68148;55.328;86.106;2024-02-16T02:24:54;100078.59;;;-28.58;74.51
78800;BME280;68148;55.328;86.106;2024-02-16T02:27:20;100078.81;;;-28.52;74.76
78800;BME280;68148;55.328;86.106;2024-02-16T02:29:46;100078.13;;;-28.50;74.40
78800;BME280;68148;55.328;86.106;2024-02-16T02:32:13;100077.50;;;-28.44;75.34
78800;BME280;68148;55.328;86.106;2024-02-16T02:34:39;100081.91;;;-28.37;74.95
78800;BME280;68148;55.328;86.106;2024-02-16T02:37:05;100087.75;;;-28.35;74.84
78800;BME280;68148;55.328;86.106;2024-02-16T02:39:32;100085.06;;;-28.41;73.67
78800;BME280;68148;55.328;86.106;2024-02-16T02:41:58;100086.50;;;-28.46;73.99
78800;BME280;68148;55.328;86.106;2024-02-16T02:44:26;100084.75;;;-28.49;73.67
78800;BME280;68148;55.328;86.106;2024-02-16T02:46:52;100095.78;;;-28.61;72.88
78800;BME280;68148;55.328;86.106;2024-02-16T02:49:19;100105.34;;;-28.90;73.49
78800;BME280;68148;55.328;86.106;2024-02-16T02:51:45;100097.47;;;-29.22;74.14
78800;BME280;68148;55.328;86.106;2024-02-16T02:54:11;100113.09;;;-29.23;74.71
78800;BME280;68148;55.328;86.106;2024-02-16T02:56:37;100115.22;;;-29.30;75.50
78800;BME280;68148;55.328;86.106;2024-02-16T02:59:03;100118.16;;;-29.39;75.45
78800;BME280;68148;55.328;86.106;2024-02-16T03:01:28;100118.81;;;-29.24;74.49
78800;BME280;68148;55.328;86.106;2024-02-16T03:03:54;100117.00;;;-29.28;74.96
78800;BME280;68148;55.328;86.106;2024-02-16T03:06:21;100117.94;;;-29.24;75.33
78800;BME280;68148;55.328;86.106;2024-02-16T03:08:51;100128.75;;;-29.22;74.92
78800;BME280;68148;55.328;86.106;2024-02-16T03:11:17;100117.09;;;-29.25;75.15
78800;BME280;68148;55.328;86.106;2024-02-16T03:13:42;100126.53;;;-29.16;74.96
78800;BME280;68148;55.328;86.106;2024-02-16T03:16:08;100116.34;;;-29.04;74.98
78800;BME280;68148;55.328;86.106;2024-02-16T03:18:34;100123.44;;;-28.91;74.42
78800;BME280;68148;55.328;86.106;2024-02-16T03:21:00;100122.66;;;-28.90;74.30
78800;BME280;68148;55.328;86.106;2024-02-16T03:23:26;100123.34;;;-28.73;74.47
78800;BME280;68148;55.328;86.106;2024-02-16T03:25:52;100125.81;;;-28.33;74.35
78800;BME280;68148;55.328;86.106;2024-02-16T03:28:18;100131.78;;;-28.28;74.02
78800;BME280;68148;55.328;86.106;2024-02-16T03:30:44;100130.00;;;-28.09;73.79
78800;BME280;68148;55.328;86.106;2024-02-16T03:33:12;100135.03;;;-28.08;73.08
78800;BME280;68148;55.328;86.106;2024-02-16T03:35:47;100129.66;;;-28.19;73.61
78800;BME280;68148;55.328;86.106;2024-02-16T03:38:13;100134.75;;;-28.16;74.18
78800;BME280;68148;55.328;86.106;2024-02-16T03:40:39;100127.41;;;-27.69;74.61
78800;BME280;68148;55.328;86.106;2024-02-16T03:43:04;100131.44;;;-27.26;74.32
78800;BME280;68148;55.328;86.106;2024-02-16T03:45:30;100125.91;;;-27.19;72.75
78800;BME280;68148;55.328;86.106;2024-02-16T03:47:56;100130.34;;;-27.10;72.79
78800;BME280;68148;55.328;86.106;2024-02-16T03:50:22;100135.50;;;-27.04;72.09
78800;BME280;68148;55.328;86.106;2024-02-16T03:52:48;100142.03;;;-27.06;71.09
78800;BME280;68148;55.328;86.106;2024-02-16T03:55:14;100133.63;;;-27.12;71.56
78800;BME280;68148;55.328;86.106;2024-02-16T03:57:40;100144.75;;;-27.00;72.08
78800;BME280;68148;55.328;86.106;2024-02-16T04:00:06;100141.41;;;-27.01;72.16
78800;BME280;68148;55.328;86.106;2024-02-16T04:02:32;100146.28;;;-27.04;70.89
78800;BME280;68148;55.328;86.106;2024-02-16T04:04:58;100144.47;;;-27.08;71.65
78800;BME280;68148;55.328;86.106;2024-02-16T04:07:24;100150.13;;;-26.88;71.54
78800;BME280;68148;55.328;86.106;2024-02-16T04:09:50;100147.22;;;-26.76;71.25
78800;BME280;68148;55.328;86.106;2024-02-16T04:12:16;100157.84;;;-26.56;70.71
78800;BME280;68148;55.328;86.106;2024-02-16T04:14:41;100158.25;;;-26.44;70.32
78800;BME280;68148;55.328;86.106;2024-02-16T04:17:07;100150.09;;;-26.39;69.78
78800;BME280;68148;55.328;86.106;2024-02-16T04:19:33;100162.91;;;-26.28;69.40
78800;BME280;68148;55.328;86.106;2024-02-16T04:21:59;100160.41;;;-26.02;69.79
78800;BME280;68148;55.328;86.106;2024-02-16T04:24:25;100162.41;;;-26.43;68.29
78800;BME280;68148;55.328;86.106;2024-02-16T04:26:52;100167.75;;;-26.31;68.69
78800;BME280;68148;55.328;86.106;2024-02-16T04:29:18;100173.81;;;-25.97;69.42
78800;BME280;68148;55.328;86.106;2024-02-16T04:31:44;100173.13;;;-25.93;68.34
78800;BME280;68148;55.328;86.106;2024-02-16T04:34:10;100168.50;;;-26.08;67.51
78800;BME280;68148;55.328;86.106;2024-02-16T04:36:35;100175.41;;;-25.99;67.72
78800;BME280;68148;55.328;86.106;2024-02-16T04:39:01;100184.72;;;-26.69;67.57
78800;BME280;68148;55.328;86.106;2024-02-16T04:41:27;100178.50;;;-26.32;68.63
78800;BME280;68148;55.328;86.106;2024-02-16T04:43:53;100179.09;;;-26.39;67.49
78800;BME280;68148;55.328;86.106;2024-02-16T04:46:19;100185.94;;;-26.32;68.54
78800;BME280;68148;55.328;86.106;2024-02-16T04:48:48;100185.59;;;-25.92;68.24
78800;BME280;68148;55.328;86.106;2024-02-16T04:51:14;100183.59;;;-25.76;68.08
78800;BME280;68148;55.328;86.106;2024-02-16T04:53:39;100194.06;;;-25.58;67.66
78800;BME280;68148;55.328;86.106;2024-02-16T04:56:06;100200.84;;;-25.54;67.56
78800;BME280;68148;55.328;86.106;2024-02-16T04:58:32;100201.78;;;-25.50;66.60
78800;BME280;68148;55.328;86.106;2024-02-16T05:00:58;100203.94;;;-25.34;66.51
78800;BME280;68148;55.328;86.106;2024-02-16T05:03:25;100206.75;;;-25.50;65.30
78800;BME280;68148;55.328;86.106;2024-02-16T05:05:51;100204.19;;;-25.52;65.56
78800;BME280;68148;55.328;86.106;2024-02-16T05:08:16;100199.66;;;-25.38;65.79
78800;BME280;68148;55.328;86.106;2024-02-16T05:10:42;100204.72;;;-25.35;65.52
78800;BME280;68148;55.328;86.106;2024-02-16T05:13:08;100210.50;;;-25.36;65.73
78800;BME280;68148;55.328;86.106;2024-02-16T05:15:34;100216.78;;;-25.20;66.54
78800;BME280;68148;55.328;86.106;2024-02-16T05:17:59;100222.47;;;-25.24;65.42
78800;BME280;68148;55.328;86.106;2024-02-16T05:20:25;100225.19;;;-25.44;65.61
78800;BME280;68148;55.328;86.106;2024-02-16T05:22:51;100232.09;;;-25.35;66.01
78800;BME280;68148;55.328;86.106;2024-02-16T05:25:17;100226.19;;;-25.10;65.85
78800;BME280;68148;55.328;86.106;2024-02-16T05:27:44;100232.25;;;-25.00;65.52
78800;BME280;68148;55.328;86.106;2024-02-16T05:30:11;100227.75;;;-25.14;64.87
78800;BME280;68148;55.328;86.106;2024-02-16T05:32:38;100234.50;;;-25.10;65.50
78800;BME280;68148;55.328;86.106;2024-02-16T05:35:06;100244.63;;;-25.03;65.01
78800;BME280;68148;55.328;86.106;2024-02-16T05:37:32;100244.97;;;-25.48;64.07
78800;BME280;68148;55.328;86.106;2024-02-16T05:39:58;100254.91;;;-25.48;64.72
78800;BME280;68148;55.328;86.106;2024-02-16T05:42:24;100243.03;;;-25.57;64.50
78800;BME280;68148;55.328;86.106;2024-02-16T05:44:50;100249.09;;;-25.76;65.11
78800;BME280;68148;55.328;86.106;2024-02-16T05:47:16;100243.69;;;-25.63;65.08
78800;BME280;68148;55.328;86.106;2024-02-16T05:49:42;100242.81;;;-25.38;65.26
78800;BME280;68148;55.328;86.106;2024-02-16T05:52:08;100247.16;;;-25.02;65.01
78800;BME280;68148;55.328;86.106;2024-02-16T05:54:34;100252.84;;;-25.06;65.41
78800;BME280;68148;55.328;86.106;2024-02-16T05:56:59;100249.63;;;-25.03;65.30
78800;BME280;68148;55.328;86.106;2024-02-16T05:59:25;100253.31;;;-24.61;65.26
78800;BME280;68148;55.328;86.106;2024-02-16T06:01:57;100250.41;;;-24.46;64.72
78800;BME280;68148;55.328;86.106;2024-02-16T06:04:23;100257.50;;;-24.28;64.14
78800;BME280;68148;55.328;86.106;2024-02-16T06:06:49;100255.91;;;-24.26;63.44
78800;BME280;68148;55.328;86.106;2024-02-16T06:09:15;100259.25;;;-24.24;63.70
78800;BME280;68148;55.328;86.106;2024-02-16T06:11:40;100267.97;;;-24.41;63.29
78800;BME280;68148;55.328;86.106;2024-02-16T06:14:06;100270.06;;;-24.23;63.85
78800;BME280;68148;55.328;86.106;2024-02-16T06:16:32;100266.94;;;-24.16;64.03
78800;BME280;68148;55.328;86.106;2024-02-16T06:18:57;100269.38;;;-23.86;63.85
78800;BME280;68148;55.328;86.106;2024-02-16T06:21:23;100278.06;;;-23.37;63.69
78800;BME280;68148;55.328;86.106;2024-02-16T06:23:49;100269.38;;;-23.86;62.24
78800;BME280;68148;55.328;86.106;2024-02-16T06:26:15;100273.59;;;-23.50;63.96
78800;BME280;68148;55.328;86.106;2024-02-16T06:28:40;100274.00;;;-23.32;63.61
78800;BME280;68148;55.328;86.106;2024-02-16T06:31:06;100274.09;;;-22.91;61.57
78800;BME280;68148;55.328;86.106;2024-02-16T06:33:32;100285.22;;;-22.77;60.96
78800;BME280;68148;55.328;86.106;2024-02-16T06:35:57;100271.78;;;-22.40;60.80
78800;BME280;68148;55.328;86.106;2024-02-16T06:38:23;100269.66;;;-22.64;60.75
78800;BME280;68148;55.328;86.106;2024-02-16T06:40:49;100271.19;;;-22.28;60.96
78800;BME280;68148;55.328;86.106;2024-02-16T06:43:15;100271.50;;;-22.54;60.78
78800;BME280;68148;55.328;86.106;2024-02-16T06:45:41;100264.59;;;-22.65;61.33
78800;BME280;68148;55.328;86.106;2024-02-16T06:48:07;100263.75;;;-22.66;62.63
78800;BME280;68148;55.328;86.106;2024-02-16T06:50:33;100268.41;;;-23.22;62.60
78800;BME280;68148;55.328;86.106;2024-02-16T06:52:59;100268.16;;;-22.96;61.90
78800;BME280;68148;55.328;86.106;2024-02-16T06:55:24;100267.75;;;-22.35;62.63
78800;BME280;68148;55.328;86.106;2024-02-16T06:57:50;100278.63;;;-22.31;61.45
78800;BME280;68148;55.328;86.106;2024-02-16T07:00:16;100275.44;;;-22.24;60.60
78800;BME280;68148;55.328;86.106;2024-02-16T07:02:42;100280.44;;;-22.24;60.75
78800;BME280;68148;55.328;86.106;2024-02-16T07:05:08;100276.22;;;-22.27;61.25
78800;BME280;68148;55.328;86.106;2024-02-16T07:07:34;100292.38;;;-22.09;61.68
78800;BME280;68148;55.328;86.106;2024-02-16T07:10:00;100288.56;;;-21.89;61.39
78800;BME280;68148;55.328;86.106;2024-02-16T07:12:26;100297.78;;;-22.33;61.43
78800;BME280;68148;55.328;86.106;2024-02-16T07:14:51;100289.69;;;-22.20;60.74
78800;BME280;68148;55.328;86.106;2024-02-16T07:17:17;100292.41;;;-22.08;60.61
78800;BME280;68148;55.328;86.106;2024-02-16T07:19:53;100289.16;;;-22.47;60.25
78800;BME280;68148;55.328;86.106;2024-02-16T07:22:19;100303.63;;;-22.33;61.14
78800;BME280;68148;55.328;86.106;2024-02-16T07:24:45;100304.63;;;-22.23;61.08
78800;BME280;68148;55.328;86.106;2024-02-16T07:27:11;100300.38;;;-21.83;62.03
78800;BME280;68148;55.328;86.106;2024-02-16T07:29:37;100309.09;;;-21.61;61.32
78800;BME280;68148;55.328;86.106;2024-02-16T07:32:02;100298.56;;;-21.90;60.38
78800;BME280;68148;55.328;86.106;2024-02-16T07:34:28;100297.13;;;-22.23;60.05
78800;BME280;68148;55.328;86.106;2024-02-16T07:36:54;100315.78;;;-22.06;61.68
78800;BME280;68148;55.328;86.106;2024-02-16T07:39:20;100307.84;;;-21.85;61.19
78800;BME280;68148;55.328;86.106;2024-02-16T07:41:47;100306.13;;;-21.40;61.59
78800;BME280;68148;55.328;86.106;2024-02-16T07:44:12;100308.63;;;-21.39;60.17
78800;BME280;68148;55.328;86.106;2024-02-16T07:46:41;100311.00;;;-21.46;60.48
78800;BME280;68148;55.328;86.106;2024-02-16T07:49:07;100305.97;;;-21.48;60.48
78800;BME280;68148;55.328;86.106;2024-02-16T07:51:34;100311.31;;;-21.78;60.31
78800;BME280;68148;55.328;86.106;2024-02-16T07:54:00;100318.22;;;-21.65;61.36
78800;BME280;68148;55.328;86.106;2024-02-16T07:56:27;100321.03;;;-21.46;61.23
78800;BME280;68148;55.328;86.106;2024-02-16T07:58:52;100319.91;;;-21.64;61.28
78800;BME280;68148;55.328;86.106;2024-02-16T08:01:18;100320.38;;;-21.36;61.15
78800;BME280;68148;55.328;86.106;2024-02-16T08:03:44;100318.50;;;-21.48;62.75
78800;BME280;68148;55.328;86.106;2024-02-16T08:06:10;100326.19;;;-21.37;62.12
78800;BME280;68148;55.328;86.106;2024-02-16T08:08:36;100329.09;;;-21.63;61.99
78800;BME280;68148;55.328;86.106;2024-02-16T08:11:02;100325.44;;;-21.80;61.97
78800;BME280;68148;55.328;86.106;2024-02-16T08:13:29;100331.88;;;-21.93;62.71
78800;BME280;68148;55.328;86.106;2024-02-16T08:15:55;100335.34;;;-21.86;63.28
78800;BME280;68148;55.328;86.106;2024-02-16T08:18:35;100336.94;;;-21.90;63.46
78800;BME280;68148;55.328;86.106;2024-02-16T08:21:01;100341.78;;;-22.00;63.36
78800;BME280;68148;55.328;86.106;2024-02-16T08:23:27;100343.09;;;-22.18;63.98
78800;BME280;68148;55.328;86.106;2024-02-16T08:25:53;100339.91;;;-22.12;64.83
78800;BME280;68148;55.328;86.106;2024-02-16T08:28:18;100344.03;;;-22.11;65.44
78800;BME280;68148;55.328;86.106;2024-02-16T08:30:44;100346.56;;;-22.13;65.16
78800;BME280;68148;55.328;86.106;2024-02-16T08:33:10;100343.16;;;-22.15;65.30
78800;BME280;68148;55.328;86.106;2024-02-16T08:35:36;100351.91;;;-22.35;65.86
78800;BME280;68148;55.328;86.106;2024-02-16T08:38:03;100352.91;;;-22.27;65.49
78800;BME280;68148;55.328;86.106;2024-02-16T08:40:29;100356.72;;;-22.46;65.44
78800;BME280;68148;55.328;86.106;2024-02-16T08:42:55;100359.97;;;-22.48;66.21
78800;BME280;68148;55.328;86.106;2024-02-16T08:45:21;100360.22;;;-22.38;66.45
78800;BME280;68148;55.328;86.106;2024-02-16T08:47:50;100372.09;;;-22.28;66.33
78800;BME280;68148;55.328;86.106;2024-02-16T08:50:16;100365.69;;;-22.15;65.71
78800;BME280;68148;55.328;86.106;2024-02-16T08:52:41;100375.31;;;-22.33;65.07
78800;BME280;68148;55.328;86.106;2024-02-16T08:55:07;100381.25;;;-22.30;65.54
78800;BME280;68148;55.328;86.106;2024-02-16T08:57:33;100379.16;;;-22.07;64.07
78800;BME280;68148;55.328;86.106;2024-02-16T08:59:59;100381.84;;;-21.99;64.73
78800;BME280;68148;55.328;86.106;2024-02-16T09:02:25;100386.81;;;-22.00;64.48
78800;BME280;68148;55.328;86.106;2024-02-16T09:04:52;100394.19;;;-22.07;64.75
78800;BME280;68148;55.328;86.106;2024-02-16T09:07:18;100389.34;;;-21.99;64.35
78800;BME280;68148;55.328;86.106;2024-02-16T09:09:44;100397.13;;;-21.85;64.04
78800;BME280;68148;55.328;86.106;2024-02-16T09:12:09;100397.13;;;-21.84;63.42
78800;BME280;68148;55.328;86.106;2024-02-16T09:14:35;100395.28;;;-21.92;63.48
78800;BME280;68148;55.328;86.106;2024-02-16T09:17:01;100408.00;;;-22.25;64.19
78800;BME280;68148;55.328;86.106;2024-02-16T09:19:27;100406.72;;;-22.05;64.41
78800;BME280;68148;55.328;86.106;2024-02-16T09:21:53;100411.69;;;-22.07;63.84
78800;BME280;68148;55.328;86.106;2024-02-16T09:24:19;100413.53;;;-21.99;64.22
78800;BME280;68148;55.328;86.106;2024-02-16T09:26:45;100419.28;;;-22.04;63.86
78800;BME280;68148;55.328;86.106;2024-02-16T09:29:14;100417.94;;;-21.88;63.88
78800;BME280;68148;55.328;86.106;2024-02-16T09:31:43;100415.31;;;-21.94;64.05
78800;BME280;68148;55.328;86.106;2024-02-16T09:34:08;100418.16;;;-22.18;64.03
78800;BME280;68148;55.328;86.106;2024-02-16T09:36:34;100419.72;;;-22.23;65.01
78800;BME280;68148;55.328;86.106;2024-02-16T09:39:01;100422.13;;;-22.28;65.12
78800;BME280;68148;55.328;86.106;2024-02-16T09:41:28;100418.97;;;-22.19;65.08
78800;BME280;68148;55.328;86.106;2024-02-16T09:43:55;100423.69;;;-22.33;64.92
78800;BME280;68148;55.328;86.106;2024-02-16T09:46:21;100434.88;;;-22.55;64.82
78800;BME280;68148;55.328;86.106;2024-02-16T09:48:49;100438.28;;;-22.51;64.59
78800;BME280;68148;55.328;86.106;2024-02-16T09:51:15;100442.09;;;-22.65;65.80
78800;BME280;68148;55.328;86.106;2024-02-16T09:53:42;100438.25;;;-22.53;66.00
78800;BME280;68148;55.328;86.106;2024-02-16T09:56:08;100452.38;;;-22.55;65.28
78800;BME280;68148;55.328;86.106;2024-02-16T09:58:36;100453.25;;;-22.53;65.05
78800;BME280;68148;55.328;86.106;2024-02-16T10:01:02;100455.19;;;-22.77;65.38
78800;BME280;68148;55.328;86.106;2024-02-16T10:03:30;100450.81;;;-22.86;65.32
78800;BME280;68148;55.328;86.106;2024-02-16T10:06:06;100464.81;;;-22.94;65.66
78800;BME280;68148;55.328;86.106;2024-02-16T10:08:33;100457.91;;;-23.02;66.43
78800;BME280;68148;55.328;86.106;2024-02-16T10:11:03;100467.25;;;-23.28;66.44
78800;BME280;68148;55.328;86.106;2024-02-16T10:13:31;100467.19;;;-23.30;67.47
78800;BME280;68148;55.328;86.106;2024-02-16T10:16:08;100479.03;;;-23.23;66.49
78800;BME280;68148;55.328;86.106;2024-02-16T10:18:43;100474.03;;;-23.23;67.12
78800;BME280;68148;55.328;86.106;2024-02-16T10:21:09;100478.22;;;-23.22;67.39
78800;BME280;68148;55.328;86.106;2024-02-16T10:23:34;100480.72;;;-23.22;68.43
78800;BME280;68148;55.328;86.106;2024-02-16T10:26:00;100485.56;;;-23.28;68.21
78800;BME280;68148;55.328;86.106;2024-02-16T10:28:29;100482.25;;;-23.27;67.60
78800;BME280;68148;55.328;86.106;2024-02-16T10:30:58;100497.16;;;-23.30;68.00
78800;BME280;68148;55.328;86.106;2024-02-16T10:33:25;100502.94;;;-23.33;68.20
78800;BME280;68148;55.328;86.106;2024-02-16T10:35:52;100495.56;;;-23.28;68.15
78800;BME280;68148;55.328;86.106;2024-02-16T10:38:19;100511.19;;;-23.35;68.04
78800;BME280;68148;55.328;86.106;2024-02-16T10:40:47;100516.97;;;-23.36;67.92
78800;BME280;68148;55.328;86.106;2024-02-16T10:43:14;100515.81;;;-23.47;68.18
78800;BME280;68148;55.328;86.106;2024-02-16T10:45:41;100519.75;;;-23.56;68.29
78800;BME280;68148;55.328;86.106;2024-02-16T10:48:07;100528.75;;;-23.62;69.10
78800;BME280;68148;55.328;86.106;2024-02-16T10:50:34;100536.00;;;-23.71;68.76
78800;BME280;68148;55.328;86.106;2024-02-16T10:53:09;100545.16;;;-23.70;69.42
78800;BME280;68148;55.328;86.106;2024-02-16T10:55:36;100542.63;;;-23.72;69.22
78800;BME280;68148;55.328;86.106;2024-02-16T10:58:02;100548.34;;;-23.76;68.94
78800;BME280;68148;55.328;86.106;2024-02-16T11:00:28;100552.13;;;-23.89;70.15
78800;BME280;68148;55.328;86.106;2024-02-16T11:02:58;100559.59;;;-23.89;70.17
78800;BME280;68148;55.328;86.106;2024-02-16T11:05:34;100554.66;;;-23.87;69.90
78800;BME280;68148;55.328;86.106;2024-02-16T11:08:04;100567.22;;;-23.84;70.38
78800;BME280;68148;55.328;86.106;2024-02-16T11:10:30;100573.66;;;-23.91;69.69
78800;BME280;68148;55.328;86.106;2024-02-16T11:13:05;100575.19;;;-23.96;70.50
78800;BME280;68148;55.328;86.106;2024-02-16T11:15:33;100585.84;;;-24.01;69.79
78800;BME280;68148;55.328;86.106;2024-02-16T11:18:03;100588.88;;;-24.10;69.93
78800;BME280;68148;55.328;86.106;2024-02-16T11:20:35;100597.91;;;-24.14;70.37
78800;BME280;68148;55.328;86.106;2024-02-16T11:23:05;100596.25;;;-24.13;71.26
78800;BME280;68148;55.328;86.106;2024-02-16T11:25:32;100595.31;;;-24.17;70.06
78800;BME280;68148;55.328;86.106;2024-02-16T11:27:59;100595.91;;;-24.24;69.98
78800;BME280;68148;55.328;86.106;2024-02-16T11:30:26;100601.00;;;-24.21;70.03
78800;BME280;68148;55.328;86.106;2024-02-16T11:32:51;100605.09;;;-24.23;70.61
78800;BME280;68148;55.328;86.106;2024-02-16T11:35:17;100605.00;;;-24.26;71.11
78800;BME280;68148;55.328;86.106;2024-02-16T11:37:43;100617.47;;;-24.26;71.06
78800;BME280;68148;55.328;86.106;2024-02-16T11:40:11;100616.94;;;-24.43;70.44
78800;BME280;68148;55.328;86.106;2024-02-16T11:42:37;100618.78;;;-24.37;70.30
78800;BME280;68148;55.328;86.106;2024-02-16T11:45:03;100623.44;;;-24.48;70.27
78800;BME280;68148;55.328;86.106;2024-02-16T11:47:29;100639.06;;;-24.52;70.03
78800;BME280;68148;55.328;86.106;2024-02-16T11:50:02;100641.50;;;-24.53;70.09
78800;BME280;68148;55.328;86.106;2024-02-16T11:52:28;100650.38;;;-24.62;71.62
78800;BME280;68148;55.328;86.106;2024-02-16T11:54:54;100655.28;;;-24.63;70.62
78800;BME280;68148;55.328;86.106;2024-02-16T11:57:20;100667.84;;;-24.62;71.45
78800;BME280;68148;55.328;86.106;2024-02-16T11:59:46;100672.69;;;-24.65;71.63
78800;BME280;68148;55.328;86.106;2024-02-16T12:02:17;100679.25;;;-24.67;71.57
78800;BME280;68148;55.328;86.106;2024-02-16T12:04:43;100682.44;;;-24.71;72.17
78800;BME280;68148;55.328;86.106;2024-02-16T12:07:09;100682.44;;;-24.71;72.79
78800;BME280;68148;55.328;86.106;2024-02-16T12:09:38;100684.34;;;-24.64;72.86
78800;BME280;68148;55.328;86.106;2024-02-16T12:12:05;100685.31;;;-24.60;73.60
78800;BME280;68148;55.328;86.106;2024-02-16T12:14:31;100684.00;;;-24.50;73.54
78800;BME280;68148;55.328;86.106;2024-02-16T12:16:58;100695.75;;;-24.46;73.00
78800;BME280;68148;55.328;86.106;2024-02-16T12:19:24;100696.56;;;-24.47;72.41
78800;BME280;68148;55.328;86.106;2024-02-16T12:21:57;100700.75;;;-24.46;72.53
78800;BME280;68148;55.328;86.106;2024-02-16T12:24:24;100704.84;;;-24.48;71.77
78800;BME280;68148;55.328;86.106;2024-02-16T12:26:50;100708.22;;;-24.46;72.30
78800;BME280;68148;55.328;86.106;2024-02-16T12:29:16;100709.38;;;-24.37;72.48
78800;BME280;68148;55.328;86.106;2024-02-16T12:31:43;100720.00;;;-24.42;72.64